sensor_id;sensor_type;location;lat;lon;timestamp;temperature;humidity
53802;DHT22;39709;53.334;6.534;2023-02-15T00:01:11;-0.10;99.90
53802;DHT22;39709;53.334;6.534;2023-02-15T00:03:37;2.30;99.90
53802;DHT22;39709;53.334;6.534;2023-02-15T00:06:03;1.10;99.90
53802;DHT22;39709;53.334;6.534;2023-02-15T00:08:29;1.00;99.90
53802;DHT22;39709;53.334;6.534;2023-02-15T00:11:09;-0.10;99.90
53802;DHT22;39709;53.334;6.534;2023-02-15T00:13:36;0.50;99.90
53802;DHT22;39709;53.334;6.534;2023-02-15T00:16:06;0.40;99.90
53802;DHT22;39709;53.334;6.534;2023-02-15T00:18:33;1.20;99.90
53802;DHT22;39709;53.334;6.534;2023-02-15T00:21:03;1.10;99.90
53802;DHT22;39709;53.334;6.534;2023-02-15T00:23:29;0.70;99.90
53802;DHT22;39709;53.334;6.534;2023-02-15T00:26:11;-0.60;99.90
53802;DHT22;39709;53.334;6.534;2023-02-15T00:28:37;0.90;99.90
53802;DHT22;39709;53.334;6.534;2023-02-15T00:31:08;-0.40;99.90
53802;DHT22;39709;53.334;6.534;2023-02-15T00:33:34;0.50;99.90
53802;DHT22;39709;53.334;6.534;2023-02-15T00:36:00;1.00;99.90
53802;DHT22;39709;53.334;6.534;2023-02-15T00:38:27;-0.50;99.90
53802;DHT22;39709;53.334;6.534;2023-02-15T00:40:58;1.10;99.90
53802;DHT22;39709;53.334;6.534;2023-02-15T00:43:24;0.30;99.90
53802;DHT22;39709;53.334;6.534;2023-02-15T00:45:50;0.40;99.90
53802;DHT22;39709;53.334;6.534;2023-02-15T00:48:16;-0.30;99.90
53802;DHT22;39709;53.334;6.534;2023-02-15T00:50:45;1.00;99.90
53802;DHT22;39709;53.334;6.534;2023-02-15T00:53:11;1.10;99.90
53802;DHT22;39709;53.334;6.534;2023-02-15T00:55:36;0.30;99.90
53802;DHT22;39709;53.334;6.534;2023-02-15T00:58:02;0.20;99.90
53802;DHT22;39709;53.334;6.534;2023-02-15T01:00:28;-0.20;99.90
53802;DHT22;39709;53.334;6.534;2023-02-15T01:02:54;-0.10;99.90
53802;DHT22;39709;53.334;6.534;2023-02-15T01:05:19;1.10;99.90
53802;DHT22;39709;53.334;6.534;2023-02-15T01:07:45;1.10;99.90
53802;DHT22;39709;53.334;6.534;2023-02-15T01:10:11;0.40;99.90
53802;DHT22;39709;53.334;6.534;2023-02-15T01:12:36;0.50;99.90
53802;DHT22;39709;53.334;6.534;2023-02-15T01:15:02;0.80;99.90
53802;DHT22;39709;53.334;6.534;2023-02-15T01:17:28;0.10;99.90
53802;DHT22;39709;53.334;6.534;2023-02-15T01:19:54;-0.60;99.90
53802;DHT22;39709;53.334;6.534;2023-02-15T01:22:19;-0.30;99.90
53802;DHT22;39709;53.334;6.534;2023-02-15T01:24:45;0.00;99.90
53802;DHT22;39709;53.334;6.534;2023-02-15T01:27:11;0.70;99.90
53802;DHT22;39709;53.334;6.534;2023-02-15T01:29:36;0.70;99.90
53802;DHT22;39709;53.334;6.534;2023-02-15T01:32:02;0.40;99.90
53802;DHT22;39709;53.334;6.534;2023-02-15T01:34:29;-0.60;99.90
53802;DHT22;39709;53.334;6.534;2023-02-15T01:36:55;-0.50;99.90
53802;DHT22;39709;53.334;6.534;2023-02-15T01:39:20;-0.80;99.90
53802;DHT22;39709;53.334;6.534;2023-02-15T01:41:46;0.50;99.90
53802;DHT22;39709;53.334;6.534;2023-02-15T01:44:56;0.70;99.90
53802;DHT22;39709;53.334;6.534;2023-02-15T01:47:25;0.60;99.90
53802;DHT22;39709;53.334;6.534;2023-02-15T01:50:45;0.90;99.90
53802;DHT22;39709;53.334;6.534;2023-02-15T01:53:32;0.40;99.90
53802;DHT22;39709;53.334;6.534;2023-02-15T01:55:40;0.10;99.90
53802;DHT22;39709;53.334;6.534;2023-02-15T01:58:08;1.00;99.90
53802;DHT22;39709;53.334;6.534;2023-02-15T02:00:34;0.20;99.90
53802;DHT22;39709;53.334;6.534;2023-02-15T02:03:01;-0.50;99.90
53802;DHT22;39709;53.334;6.534;2023-02-15T02:05:27;0.90;99.90
53802;DHT22;39709;53.334;6.534;2023-02-15T02:07:57;0.50;99.90
53802;DHT22;39709;53.334;6.534;2023-02-15T02:10:24;0.50;99.90
53802;DHT22;39709;53.334;6.534;2023-02-15T02:12:54;-0.80;99.90
53802;DHT22;39709;53.334;6.534;2023-02-15T02:15:24;-0.40;99.90
53802;DHT22;39709;53.334;6.534;2023-02-15T02:20:58;-0.70;99.90
53802;DHT22;39709;53.334;6.534;2023-02-15T02:35:22;-1.30;99.90
53802;DHT22;39709;53.334;6.534;2023-02-15T02:40:24;0.10;99.90
53802;DHT22;39709;53.334;6.534;2023-02-15T02:43:02;0.20;99.90
53802;DHT22;39709;53.334;6.534;2023-02-15T02:48:10;0.20;99.90
53802;DHT22;39709;53.334;6.534;2023-02-15T02:50:39;-1.30;99.90
53802;DHT22;39709;53.334;6.534;2023-02-15T02:53:05;0.00;99.90
53802;DHT22;39709;53.334;6.534;2023-02-15T02:55:32;-1.30;99.90
53802;DHT22;39709;53.334;6.534;2023-02-15T02:58:36;-0.70;99.90
53802;DHT22;39709;53.334;6.534;2023-02-15T03:01:11;-0.10;99.90
53802;DHT22;39709;53.334;6.534;2023-02-15T03:03:44;-1.60;99.90
53802;DHT22;39709;53.334;6.534;2023-02-15T03:06:22;-1.60;99.90
53802;DHT22;39709;53.334;6.534;2023-02-15T03:09:15;-0.50;99.90
53802;DHT22;39709;53.334;6.534;2023-02-15T03:11:47;-0.50;99.90
53802;DHT22;39709;53.334;6.534;2023-02-15T03:14:15;-1.70;99.90
53802;DHT22;39709;53.334;6.534;2023-02-15T03:16:44;-1.50;99.90
53802;DHT22;39709;53.334;6.534;2023-02-15T03:19:23;-0.30;99.90
53802;DHT22;39709;53.334;6.534;2023-02-15T03:21:53;-1.20;99.90
53802;DHT22;39709;53.334;6.534;2023-02-15T03:24:43;-1.70;99.90
53802;DHT22;39709;53.334;6.534;2023-02-15T03:27:16;-0.80;99.90
53802;DHT22;39709;53.334;6.534;2023-02-15T03:29:48;-0.40;99.90
53802;DHT22;39709;53.334;6.534;2023-02-15T03:32:15;-1.90;99.90
53802;DHT22;39709;53.334;6.534;2023-02-15T03:34:43;-1.70;99.90
53802;DHT22;39709;53.334;6.534;2023-02-15T03:37:10;-1.90;99.90
53802;DHT22;39709;53.334;6.534;2023-02-15T03:45:06;-0.60;99.90
53802;DHT22;39709;53.334;6.534;2023-02-15T03:47:37;-0.90;99.90
53802;DHT22;39709;53.334;6.534;2023-02-15T03:50:11;-0.30;99.90
53802;DHT22;39709;53.334;6.534;2023-02-15T03:53:03;-1.00;99.90
53802;DHT22;39709;53.334;6.534;2023-02-15T03:55:30;-0.60;99.90
53802;DHT22;39709;53.334;6.534;2023-02-15T03:57:56;-2.00;99.90
53802;DHT22;39709;53.334;6.534;2023-02-15T04:00:45;-2.00;99.90
53802;DHT22;39709;53.334;6.534;2023-02-15T04:03:52;-0.70;99.90
53802;DHT22;39709;53.334;6.534;2023-02-15T04:06:19;-0.80;99.90
53802;DHT22;39709;53.334;6.534;2023-02-15T04:08:45;-0.40;99.90
53802;DHT22;39709;53.334;6.534;2023-02-15T04:11:30;-0.80;99.90
53802;DHT22;39709;53.334;6.534;2023-02-15T04:13:55;-2.00;99.90
53802;DHT22;39709;53.334;6.534;2023-02-15T04:16:25;-2.00;99.90
53802;DHT22;39709;53.334;6.534;2023-02-15T04:18:51;-1.60;99.90
53802;DHT22;39709;53.334;6.534;2023-02-15T04:21:35;-1.90;99.90
53802;DHT22;39709;53.334;6.534;2023-02-15T04:24:19;-1.80;99.90
53802;DHT22;39709;53.334;6.534;2023-02-15T04:27:05;-0.40;99.90
53802;DHT22;39709;53.334;6.534;2023-02-15T04:29:31;-1.70;99.90
53802;DHT22;39709;53.334;6.534;2023-02-15T04:31:58;-0.50;99.90
53802;DHT22;39709;53.334;6.534;2023-02-15T04:34:24;-1.90;99.90
53802;DHT22;39709;53.334;6.534;2023-02-15T04:36:50;-2.00;99.90
53802;DHT22;39709;53.334;6.534;2023-02-15T04:39:17;-0.80;99.90
53802;DHT22;39709;53.334;6.534;2023-02-15T04:41:44;-1.50;99.90
53802;DHT22;39709;53.334;6.534;2023-02-15T04:44:10;-0.50;99.90
53802;DHT22;39709;53.334;6.534;2023-02-15T04:46:36;-0.80;99.90
53802;DHT22;39709;53.334;6.534;2023-02-15T04:49:02;-1.10;99.90
53802;DHT22;39709;53.334;6.534;2023-02-15T04:51:28;-1.90;99.90
53802;DHT22;39709;53.334;6.534;2023-02-15T04:53:53;-0.50;99.90
53802;DHT22;39709;53.334;6.534;2023-02-15T04:56:20;-2.00;99.90
53802;DHT22;39709;53.334;6.534;2023-02-15T04:58:46;-0.60;99.90
53802;DHT22;39709;53.334;6.534;2023-02-15T05:01:13;-0.50;99.90
53802;DHT22;39709;53.334;6.534;2023-02-15T05:03:39;-0.70;99.90
53802;DHT22;39709;53.334;6.534;2023-02-15T05:06:05;-0.60;99.90
53802;DHT22;39709;53.334;6.534;2023-02-15T05:08:31;-0.50;99.90
53802;DHT22;39709;53.334;6.534;2023-02-15T05:10:57;-0.50;99.90
53802;DHT22;39709;53.334;6.534;2023-02-15T05:13:23;-0.60;99.90
53802;DHT22;39709;53.334;6.534;2023-02-15T05:15:52;-1.90;99.90
53802;DHT22;39709;53.334;6.534;2023-02-15T05:18:20;-1.00;99.90
53802;DHT22;39709;53.334;6.534;2023-02-15T05:20:46;-1.90;99.90
53802;DHT22;39709;53.334;6.534;2023-02-15T05:23:12;-1.60;99.90
53802;DHT22;39709;53.334;6.534;2023-02-15T05:25:38;-1.80;99.90
53802;DHT22;39709;53.334;6.534;2023-02-15T05:28:26;-1.70;99.90
53802;DHT22;39709;53.334;6.534;2023-02-15T05:33:38;-0.50;99.90
53802;DHT22;39709;53.334;6.534;2023-02-15T05:36:04;-0.80;99.90
53802;DHT22;39709;53.334;6.534;2023-02-15T05:38:31;-0.60;99.90
53802;DHT22;39709;53.334;6.534;2023-02-15T05:40:57;-0.50;99.90
53802;DHT22;39709;53.334;6.534;2023-02-15T05:43:23;-2.10;99.90
53802;DHT22;39709;53.334;6.534;2023-02-15T05:45:50;-0.80;99.90
53802;DHT22;39709;53.334;6.534;2023-02-15T05:48:17;-1.90;99.90
53802;DHT22;39709;53.334;6.534;2023-02-15T05:50:43;-1.10;99.90
53802;DHT22;39709;53.334;6.534;2023-02-15T05:53:10;-2.00;99.90
53802;DHT22;39709;53.334;6.534;2023-02-15T05:55:39;-1.00;99.90
53802;DHT22;39709;53.334;6.534;2023-02-15T05:58:05;-1.30;99.90
53802;DHT22;39709;53.334;6.534;2023-02-15T06:00:31;-1.90;99.90
53802;DHT22;39709;53.334;6.534;2023-02-15T06:02:56;-0.50;99.90
53802;DHT22;39709;53.334;6.534;2023-02-15T06:05:22;-0.90;99.90
53802;DHT22;39709;53.334;6.534;2023-02-15T06:07:48;-1.30;99.90
53802;DHT22;39709;53.334;6.534;2023-02-15T06:10:14;-0.70;99.90
53802;DHT22;39709;53.334;6.534;2023-02-15T06:12:39;-1.70;99.90
53802;DHT22;39709;53.334;6.534;2023-02-15T06:15:05;-0.70;99.90
53802;DHT22;39709;53.334;6.534;2023-02-15T06:17:32;-0.60;99.90
53802;DHT22;39709;53.334;6.534;2023-02-15T06:19:58;-1.60;99.90
53802;DHT22;39709;53.334;6.534;2023-02-15T06:22:23;-0.70;99.90
53802;DHT22;39709;53.334;6.534;2023-02-15T06:24:49;-1.90;99.90
53802;DHT22;39709;53.334;6.534;2023-02-15T06:27:15;-1.60;99.90
53802;DHT22;39709;53.334;6.534;2023-02-15T06:29:41;-1.80;99.90
53802;DHT22;39709;53.334;6.534;2023-02-15T06:32:06;-1.10;99.90
53802;DHT22;39709;53.334;6.534;2023-02-15T06:34:32;-1.00;99.90
53802;DHT22;39709;53.334;6.534;2023-02-15T06:36:58;-0.70;99.90
53802;DHT22;39709;53.334;6.534;2023-02-15T06:39:24;-0.60;99.90
53802;DHT22;39709;53.334;6.534;2023-02-15T06:41:49;-1.30;99.90
53802;DHT22;39709;53.334;6.534;2023-02-15T06:44:15;-2.00;99.90
53802;DHT22;39709;53.334;6.534;2023-02-15T06:46:41;-0.70;99.90
53802;DHT22;39709;53.334;6.534;2023-02-15T06:49:06;-0.60;99.90
53802;DHT22;39709;53.334;6.534;2023-02-15T06:51:32;-1.50;99.90
53802;DHT22;39709;53.334;6.534;2023-02-15T06:53:59;-1.90;99.90
53802;DHT22;39709;53.334;6.534;2023-02-15T06:56:25;-0.60;99.90
53802;DHT22;39709;53.334;6.534;2023-02-15T06:58:51;-2.00;99.90
53802;DHT22;39709;53.334;6.534;2023-02-15T07:01:18;-0.60;99.90
53802;DHT22;39709;53.334;6.534;2023-02-15T07:03:44;-0.80;99.90
53802;DHT22;39709;53.334;6.534;2023-02-15T07:06:09;-1.90;99.90
53802;DHT22;39709;53.334;6.534;2023-02-15T07:08:37;-0.60;99.90
53802;DHT22;39709;53.334;6.534;2023-02-15T07:11:04;-0.50;99.90
53802;DHT22;39709;53.334;6.534;2023-02-15T07:13:49;-1.20;99.90
53802;DHT22;39709;53.334;6.534;2023-02-15T07:16:15;-1.90;99.90
53802;DHT22;39709;53.334;6.534;2023-02-15T07:18:40;-2.00;99.90
53802;DHT22;39709;53.334;6.534;2023-02-15T07:21:07;-1.90;99.90
53802;DHT22;39709;53.334;6.534;2023-02-15T07:23:38;-1.10;99.90
53802;DHT22;39709;53.334;6.534;2023-02-15T07:26:05;-1.50;99.90
53802;DHT22;39709;53.334;6.534;2023-02-15T07:28:33;-1.00;99.90
53802;DHT22;39709;53.334;6.534;2023-02-15T07:31:02;-0.60;99.90
53802;DHT22;39709;53.334;6.534;2023-02-15T07:33:30;-1.60;99.90
53802;DHT22;39709;53.334;6.534;2023-02-15T07:35:58;-0.90;99.90
53802;DHT22;39709;53.334;6.534;2023-02-15T07:38:25;-0.80;99.90
53802;DHT22;39709;53.334;6.534;2023-02-15T07:40:51;-0.20;99.90
53802;DHT22;39709;53.334;6.534;2023-02-15T07:43:17;-1.00;99.90
53802;DHT22;39709;53.334;6.534;2023-02-15T07:45:43;-1.00;99.90
53802;DHT22;39709;53.334;6.534;2023-02-15T07:48:09;-1.30;99.90
53802;DHT22;39709;53.334;6.534;2023-02-15T07:50:34;-0.80;99.90
53802;DHT22;39709;53.334;6.534;2023-02-15T07:53:03;0.00;99.90
53802;DHT22;39709;53.334;6.534;2023-02-15T07:55:29;-1.10;99.90
53802;DHT22;39709;53.334;6.534;2023-02-15T07:57:55;-1.30;99.90
53802;DHT22;39709;53.334;6.534;2023-02-15T08:00:22;0.20;99.90
53802;DHT22;39709;53.334;6.534;2023-02-15T08:02:52;-1.20;99.90
53802;DHT22;39709;53.334;6.534;2023-02-15T08:05:43;0.00;99.90
53802;DHT22;39709;53.334;6.534;2023-02-15T08:08:11;-0.70;99.90
53802;DHT22;39709;53.334;6.534;2023-02-15T08:13:58;-0.60;99.90
53802;DHT22;39709;53.334;6.534;2023-02-15T08:16:36;-0.90;99.90
53802;DHT22;39709;53.334;6.534;2023-02-15T08:19:05;0.60;99.90
53802;DHT22;39709;53.334;6.534;2023-02-15T08:21:32;-0.20;99.90
53802;DHT22;39709;53.334;6.534;2023-02-15T08:23:58;0.30;99.90
53802;DHT22;39709;53.334;6.534;2023-02-15T08:26:25;0.20;99.90
53802;DHT22;39709;53.334;6.534;2023-02-15T08:28:52;0.70;99.90
53802;DHT22;39709;53.334;6.534;2023-02-15T08:31:19;-0.60;99.90
53802;DHT22;39709;53.334;6.534;2023-02-15T08:33:46;-0.70;99.90
53802;DHT22;39709;53.334;6.534;2023-02-15T08:36:18;0.90;99.90
53802;DHT22;39709;53.334;6.534;2023-02-15T08:38:44;-0.40;99.90
53802;DHT22;39709;53.334;6.534;2023-02-15T08:41:21;0.00;99.90
53802;DHT22;39709;53.334;6.534;2023-02-15T08:43:52;0.40;99.90
53802;DHT22;39709;53.334;6.534;2023-02-15T08:46:20;0.60;99.90
53802;DHT22;39709;53.334;6.534;2023-02-15T08:48:46;0.80;99.90
53802;DHT22;39709;53.334;6.534;2023-02-15T08:51:17;1.30;99.90
53802;DHT22;39709;53.334;6.534;2023-02-15T08:53:46;0.90;99.90
53802;DHT22;39709;53.334;6.534;2023-02-15T08:56:15;0.80;99.90
53802;DHT22;39709;53.334;6.534;2023-02-15T08:58:41;0.70;99.90
53802;DHT22;39709;53.334;6.534;2023-02-15T09:01:12;0.40;99.90
53802;DHT22;39709;53.334;6.534;2023-02-15T09:03:38;2.10;99.90
53802;DHT22;39709;53.334;6.534;2023-02-15T09:06:05;2.10;99.90
53802;DHT22;39709;53.334;6.534;2023-02-15T09:08:31;2.10;99.90
53802;DHT22;39709;53.334;6.534;2023-02-15T09:11:16;2.40;99.90
53802;DHT22;39709;53.334;6.534;2023-02-15T09:13:48;2.40;99.90
53802;DHT22;39709;53.334;6.534;2023-02-15T09:16:14;1.80;99.90
53802;DHT22;39709;53.334;6.534;2023-02-15T09:18:42;2.40;99.90
53802;DHT22;39709;53.334;6.534;2023-02-15T09:21:13;2.20;99.90
53802;DHT22;39709;53.334;6.534;2023-02-15T09:23:40;1.30;99.90
53802;DHT22;39709;53.334;6.534;2023-02-15T09:26:09;1.50;99.90
53802;DHT22;39709;53.334;6.534;2023-02-15T09:28:35;2.20;99.90
53802;DHT22;39709;53.334;6.534;2023-02-15T09:31:20;1.70;99.90
53802;DHT22;39709;53.334;6.534;2023-02-15T09:33:47;1.90;99.90
53802;DHT22;39709;53.334;6.534;2023-02-15T09:36:18;1.80;99.90
53802;DHT22;39709;53.334;6.534;2023-02-15T09:38:45;2.30;99.90
53802;DHT22;39709;53.334;6.534;2023-02-15T09:50:30;2.90;99.90
53802;DHT22;39709;53.334;6.534;2023-02-15T09:53:06;2.50;99.90
53802;DHT22;39709;53.334;6.534;2023-02-15T09:55:57;2.90;99.90
53802;DHT22;39709;53.334;6.534;2023-02-15T10:04:46;3.20;99.90
53802;DHT22;39709;53.334;6.534;2023-02-15T10:12:57;3.70;99.90
53802;DHT22;39709;53.334;6.534;2023-02-15T10:18:33;4.30;99.90
53802;DHT22;39709;53.334;6.534;2023-02-15T10:26:46;5.50;99.90
53802;DHT22;39709;53.334;6.534;2023-02-15T10:40:00;4.60;99.90
53802;DHT22;39709;53.334;6.534;2023-02-15T10:42:32;5.50;99.90
53802;DHT22;39709;53.334;6.534;2023-02-15T10:48:22;4.80;99.90
53802;DHT22;39709;53.334;6.534;2023-02-15T10:50:55;5.00;99.90
53802;DHT22;39709;53.334;6.534;2023-02-15T10:56:23;5.60;99.90
53802;DHT22;39709;53.334;6.534;2023-02-15T10:59:17;5.30;99.90
53802;DHT22;39709;53.334;6.534;2023-02-15T11:07:33;5.40;83.60
53802;DHT22;39709;53.334;6.534;2023-02-15T11:10:13;5.90;72.60
53802;DHT22;39709;53.334;6.534;2023-02-15T11:12:41;5.90;37.50
53802;DHT22;39709;53.334;6.534;2023-02-15T11:18:25;5.90;23.50
53802;DHT22;39709;53.334;6.534;2023-02-15T11:21:13;5.70;39.80
53802;DHT22;39709;53.334;6.534;2023-02-15T11:23:44;6.20;39.70
53802;DHT22;39709;53.334;6.534;2023-02-15T11:26:54;5.80;37.50
53802;DHT22;39709;53.334;6.534;2023-02-15T11:29:27;6.50;38.20
53802;DHT22;39709;53.334;6.534;2023-02-15T11:31:57;6.20;5.40
53802;DHT22;39709;53.334;6.534;2023-02-15T11:35:10;6.50;1.80
53802;DHT22;39709;53.334;6.534;2023-02-15T11:37:18;6.50;6.90
53802;DHT22;39709;53.334;6.534;2023-02-15T11:39:45;6.30;1.00
53802;DHT22;39709;53.334;6.534;2023-02-15T11:42:20;6.70;1.50
53802;DHT22;39709;53.334;6.534;2023-02-15T11:48:01;6.60;1.00
53802;DHT22;39709;53.334;6.534;2023-02-15T11:50:33;6.90;1.00
53802;DHT22;39709;53.334;6.534;2023-02-15T11:53:02;7.00;1.00
53802;DHT22;39709;53.334;6.534;2023-02-15T11:55:30;7.20;1.00
53802;DHT22;39709;53.334;6.534;2023-02-15T12:00:47;7.20;1.00
53802;DHT22;39709;53.334;6.534;2023-02-15T12:06:30;7.70;1.00
53802;DHT22;39709;53.334;6.534;2023-02-15T12:09:05;7.90;1.00
53802;DHT22;39709;53.334;6.534;2023-02-15T12:11:36;7.60;1.00
53802;DHT22;39709;53.334;6.534;2023-02-15T12:14:08;7.60;1.00
53802;DHT22;39709;53.334;6.534;2023-02-15T12:19:31;7.80;1.00
53802;DHT22;39709;53.334;6.534;2023-02-15T12:21:59;7.90;1.00
53802;DHT22;39709;53.334;6.534;2023-02-15T12:24:29;7.70;1.00
53802;DHT22;39709;53.334;6.534;2023-02-15T12:27:00;8.00;1.00
53802;DHT22;39709;53.334;6.534;2023-02-15T12:29:29;7.70;1.00
53802;DHT22;39709;53.334;6.534;2023-02-15T12:31:56;7.90;1.00
53802;DHT22;39709;53.334;6.534;2023-02-15T12:34:29;8.00;1.00
53802;DHT22;39709;53.334;6.534;2023-02-15T12:36:58;7.80;1.00
53802;DHT22;39709;53.334;6.534;2023-02-15T12:39:31;8.00;1.00
53802;DHT22;39709;53.334;6.534;2023-02-15T12:42:20;8.10;1.00
53802;DHT22;39709;53.334;6.534;2023-02-15T12:44:54;7.90;1.00
53802;DHT22;39709;53.334;6.534;2023-02-15T12:47:20;8.10;1.00
53802;DHT22;39709;53.334;6.534;2023-02-15T12:52:43;8.10;1.00
53802;DHT22;39709;53.334;6.534;2023-02-15T12:55:17;8.40;1.00
53802;DHT22;39709;53.334;6.534;2023-02-15T12:57:43;8.40;1.00
53802;DHT22;39709;53.334;6.534;2023-02-15T13:02:49;8.60;1.00
53802;DHT22;39709;53.334;6.534;2023-02-15T13:07:50;8.70;1.00
53802;DHT22;39709;53.334;6.534;2023-02-15T13:10:57;8.70;1.00
53802;DHT22;39709;53.334;6.534;2023-02-15T13:13:25;8.60;1.00
53802;DHT22;39709;53.334;6.534;2023-02-15T13:15:54;8.70;1.00
53802;DHT22;39709;53.334;6.534;2023-02-15T13:18:36;8.70;1.00
53802;DHT22;39709;53.334;6.534;2023-02-15T13:21:14;8.70;1.00
53802;DHT22;39709;53.334;6.534;2023-02-15T13:24:00;9.00;1.00
53802;DHT22;39709;53.334;6.534;2023-02-15T13:26:30;8.80;1.00
53802;DHT22;39709;53.334;6.534;2023-02-15T13:29:05;8.80;1.00
53802;DHT22;39709;53.334;6.534;2023-02-15T13:31:34;8.80;1.00
53802;DHT22;39709;53.334;6.534;2023-02-15T13:34:10;8.90;1.00
53802;DHT22;39709;53.334;6.534;2023-02-15T13:40:12;8.90;1.00
53802;DHT22;39709;53.334;6.534;2023-02-15T13:43:33;8.90;1.00
53802;DHT22;39709;53.334;6.534;2023-02-15T13:57:53;9.20;1.00
53802;DHT22;39709;53.334;6.534;2023-02-15T14:05:45;9.30;1.00
53802;DHT22;39709;53.334;6.534;2023-02-15T14:17:03;9.30;1.00
53802;DHT22;39709;53.334;6.534;2023-02-15T14:19:44;9.40;1.00
53802;DHT22;39709;53.334;6.534;2023-02-15T14:30:34;9.40;1.00
53802;DHT22;39709;53.334;6.534;2023-02-15T14:33:19;9.40;1.00
53802;DHT22;39709;53.334;6.534;2023-02-15T14:35:48;9.30;1.00
53802;DHT22;39709;53.334;6.534;2023-02-15T14:41:47;9.40;1.00
53802;DHT22;39709;53.334;6.534;2023-02-15T14:44:37;9.20;1.00
53802;DHT22;39709;53.334;6.534;2023-02-15T14:47:16;9.20;1.00
53802;DHT22;39709;53.334;6.534;2023-02-15T14:49:45;9.30;1.00
53802;DHT22;39709;53.334;6.534;2023-02-15T14:52:11;9.30;1.00
53802;DHT22;39709;53.334;6.534;2023-02-15T14:59:46;9.40;1.00
53802;DHT22;39709;53.334;6.534;2023-02-15T15:09:57;9.10;1.00
53802;DHT22;39709;53.334;6.534;2023-02-15T15:14:50;9.10;1.00
53802;DHT22;39709;53.334;6.534;2023-02-15T15:19:59;9.10;1.00
53802;DHT22;39709;53.334;6.534;2023-02-15T15:22:26;9.10;99.90
53802;DHT22;39709;53.334;6.534;2023-02-15T15:25:00;9.00;1.00
53802;DHT22;39709;53.334;6.534;2023-02-15T15:44:08;8.90;1.00
53802;DHT22;39709;53.334;6.534;2023-02-15T15:49:28;8.70;1.00
53802;DHT22;39709;53.334;6.534;2023-02-15T15:51:56;8.60;1.00
53802;DHT22;39709;53.334;6.534;2023-02-15T15:54:26;8.60;1.00
53802;DHT22;39709;53.334;6.534;2023-02-15T15:56:59;8.60;1.00
53802;DHT22;39709;53.334;6.534;2023-02-15T15:59:28;8.40;1.00
53802;DHT22;39709;53.334;6.534;2023-02-15T16:01:55;8.50;99.90
53802;DHT22;39709;53.334;6.534;2023-02-15T16:04:29;8.40;1.00
53802;DHT22;39709;53.334;6.534;2023-02-15T16:06:57;8.30;1.00
53802;DHT22;39709;53.334;6.534;2023-02-15T16:09:25;8.20;99.90
53802;DHT22;39709;53.334;6.534;2023-02-15T16:11:57;8.20;99.90
53802;DHT22;39709;53.334;6.534;2023-02-15T16:14:30;8.10;99.90
53802;DHT22;39709;53.334;6.534;2023-02-15T16:16:59;8.10;99.90
53802;DHT22;39709;53.334;6.534;2023-02-15T16:19:35;8.00;99.90
53802;DHT22;39709;53.334;6.534;2023-02-15T16:22:02;7.90;99.90
53802;DHT22;39709;53.334;6.534;2023-02-15T16:29:42;7.60;1.00
53802;DHT22;39709;53.334;6.534;2023-02-15T16:32:37;7.50;1.00
53802;DHT22;39709;53.334;6.534;2023-02-15T16:35:12;7.50;1.00
53802;DHT22;39709;53.334;6.534;2023-02-15T16:37:38;7.50;1.00
53802;DHT22;39709;53.334;6.534;2023-02-15T16:40:04;7.20;1.00
53802;DHT22;39709;53.334;6.534;2023-02-15T16:42:30;7.40;1.00
53802;DHT22;39709;53.334;6.534;2023-02-15T16:47:30;7.20;1.00
53802;DHT22;39709;53.334;6.534;2023-02-15T16:50:00;7.00;1.00
53802;DHT22;39709;53.334;6.534;2023-02-15T16:52:28;6.90;1.00
53802;DHT22;39709;53.334;6.534;2023-02-15T16:55:00;7.00;1.00
53802;DHT22;39709;53.334;6.534;2023-02-15T16:57:30;7.00;1.00
53802;DHT22;39709;53.334;6.534;2023-02-15T17:00:14;6.90;1.00
53802;DHT22;39709;53.334;6.534;2023-02-15T17:02:58;6.90;1.00
53802;DHT22;39709;53.334;6.534;2023-02-15T17:05:33;6.60;1.00
53802;DHT22;39709;53.334;6.534;2023-02-15T17:08:41;6.50;1.00
53802;DHT22;39709;53.334;6.534;2023-02-15T17:19:20;6.50;1.00
53802;DHT22;39709;53.334;6.534;2023-02-15T17:22:01;6.30;1.00
53802;DHT22;39709;53.334;6.534;2023-02-15T17:24:41;6.40;1.00
53802;DHT22;39709;53.334;6.534;2023-02-15T17:27:15;6.50;1.00
53802;DHT22;39709;53.334;6.534;2023-02-15T17:29:48;6.40;1.00
53802;DHT22;39709;53.334;6.534;2023-02-15T17:32:21;6.20;1.00
53802;DHT22;39709;53.334;6.534;2023-02-15T17:40:18;6.10;1.00
53802;DHT22;39709;53.334;6.534;2023-02-15T17:42:44;6.30;1.00
53802;DHT22;39709;53.334;6.534;2023-02-15T17:45:10;6.20;1.00
53802;DHT22;39709;53.334;6.534;2023-02-15T17:47:35;6.10;1.00
53802;DHT22;39709;53.334;6.534;2023-02-15T17:50:03;6.10;1.00
53802;DHT22;39709;53.334;6.534;2023-02-15T17:52:29;6.00;1.00
53802;DHT22;39709;53.334;6.534;2023-02-15T17:54:56;6.00;1.00
53802;DHT22;39709;53.334;6.534;2023-02-15T17:57:40;5.80;1.00
53802;DHT22;39709;53.334;6.534;2023-02-15T18:00:07;6.00;1.00
53802;DHT22;39709;53.334;6.534;2023-02-15T18:02:52;6.00;1.00
53802;DHT22;39709;53.334;6.534;2023-02-15T18:05:36;5.80;1.00
53802;DHT22;39709;53.334;6.534;2023-02-15T18:08:25;6.00;1.00
53802;DHT22;39709;53.334;6.534;2023-02-15T18:11:10;6.00;1.00
53802;DHT22;39709;53.334;6.534;2023-02-15T18:13:54;5.90;1.00
53802;DHT22;39709;53.334;6.534;2023-02-15T18:16:24;5.80;1.00
53802;DHT22;39709;53.334;6.534;2023-02-15T18:18:51;5.70;1.00
53802;DHT22;39709;53.334;6.534;2023-02-15T18:21:17;5.80;1.00
53802;DHT22;39709;53.334;6.534;2023-02-15T18:23:43;5.80;1.00
53802;DHT22;39709;53.334;6.534;2023-02-15T18:26:18;5.90;1.00
53802;DHT22;39709;53.334;6.534;2023-02-15T18:28:44;5.60;1.00
53802;DHT22;39709;53.334;6.534;2023-02-15T18:31:10;5.50;1.00
53802;DHT22;39709;53.334;6.534;2023-02-15T18:33:46;5.60;1.00
53802;DHT22;39709;53.334;6.534;2023-02-15T18:36:32;5.50;1.00
53802;DHT22;39709;53.334;6.534;2023-02-15T18:39:00;5.60;1.00
53802;DHT22;39709;53.334;6.534;2023-02-15T18:41:28;5.80;1.00
53802;DHT22;39709;53.334;6.534;2023-02-15T18:43:54;5.50;1.00
53802;DHT22;39709;53.334;6.534;2023-02-15T18:46:20;5.80;1.00
53802;DHT22;39709;53.334;6.534;2023-02-15T18:48:46;5.40;1.00
53802;DHT22;39709;53.334;6.534;2023-02-15T18:51:20;5.60;1.00
53802;DHT22;39709;53.334;6.534;2023-02-15T18:53:49;5.50;1.00
53802;DHT22;39709;53.334;6.534;2023-02-15T18:56:17;5.60;1.00
53802;DHT22;39709;53.334;6.534;2023-02-15T18:58:43;5.70;1.00
53802;DHT22;39709;53.334;6.534;2023-02-15T19:01:21;5.50;1.00
53802;DHT22;39709;53.334;6.534;2023-02-15T19:03:48;5.40;1.00
53802;DHT22;39709;53.334;6.534;2023-02-15T19:06:16;5.40;1.00
53802;DHT22;39709;53.334;6.534;2023-02-15T19:08:45;5.60;1.00
53802;DHT22;39709;53.334;6.534;2023-02-15T19:11:21;5.50;1.00
53802;DHT22;39709;53.334;6.534;2023-02-15T19:13:49;5.60;1.00
53802;DHT22;39709;53.334;6.534;2023-02-15T19:18:52;5.40;1.00
53802;DHT22;39709;53.334;6.534;2023-02-15T19:21:18;5.60;1.00
53802;DHT22;39709;53.334;6.534;2023-02-15T19:23:50;5.50;1.00
53802;DHT22;39709;53.334;6.534;2023-02-15T19:26:17;5.50;1.00
53802;DHT22;39709;53.334;6.534;2023-02-15T19:28:43;5.30;1.00
53802;DHT22;39709;53.334;6.534;2023-02-15T19:31:11;5.20;1.00
53802;DHT22;39709;53.334;6.534;2023-02-15T19:33:38;5.30;1.00
53802;DHT22;39709;53.334;6.534;2023-02-15T19:36:06;5.30;1.00
53802;DHT22;39709;53.334;6.534;2023-02-15T19:38:38;5.40;1.00